createdAt,value
2023-05-02T00:00:59.078Z,4.20
2023-05-02T00:05:01.074Z,4.38
2023-05-02T00:09:03.612Z,4.25
2023-05-02T00:13:06.010Z,4.03
2023-05-02T00:17:07.567Z,4.40
2023-05-02T00:21:09.489Z,3.90
2023-05-02T00:25:16.049Z,3.80
2023-05-02T00:29:18.209Z,3.75
2023-05-02T00:33:19.765Z,4.28
2023-05-02T00:37:21.416Z,3.85
2023-05-02T00:41:22.867Z,4.07
2023-05-02T00:45:24.373Z,4.20
2023-05-02T00:49:25.852Z,3.50
2023-05-02T00:53:27.373Z,4.20
2023-05-02T00:57:28.843Z,4.00
2023-05-02T01:01:48.759Z,3.97
2023-05-02T01:06:05.429Z,4.20
2023-05-02T01:10:09.843Z,4.25
2023-05-02T01:14:12.373Z,3.63
2023-05-02T01:18:16.590Z,3.95
2023-05-02T01:22:20.303Z,3.97
2023-05-02T01:26:51.188Z,4.47
2023-05-02T01:30:54.743Z,4.30
2023-05-02T01:34:58.726Z,4.20
2023-05-02T01:39:01.692Z,3.95
2023-05-02T01:43:05.768Z,4.38
2023-05-02T01:47:09.436Z,4.40
2023-05-02T01:51:12.170Z,4.20
2023-05-02T01:55:15.913Z,3.83
2023-05-02T01:59:20.017Z,3.45
2023-05-02T02:03:22.793Z,3.58
2023-05-02T02:07:24.458Z,4.43
2023-05-02T02:11:34.475Z,3.78
2023-05-02T02:15:38.293Z,4.10
2023-05-02T02:19:42.117Z,3.88
2023-05-02T02:23:47.789Z,3.97
2023-05-02T02:27:49.340Z,4.78
2023-05-02T02:31:50.733Z,4.57
2023-05-02T02:36:01.346Z,3.97
2023-05-02T02:40:11.905Z,3.85
2023-05-02T02:44:32.417Z,3.28
2023-05-02T02:48:43.348Z,3.88
2023-05-02T02:52:53.469Z,4.20
2023-05-02T02:57:04.455Z,3.72
2023-05-02T03:01:08.823Z,3.88
2023-05-02T03:05:11.350Z,3.88
2023-05-02T03:09:18.814Z,4.00
2023-05-02T03:13:20.316Z,4.00
2023-05-02T03:17:22.811Z,3.83
2023-05-02T03:21:25.497Z,3.53
2023-05-02T03:25:26.948Z,3.72
2023-05-02T03:29:28.741Z,3.45
2023-05-02T03:33:30.214Z,3.85
2023-05-02T03:37:33.673Z,3.28
2023-05-02T03:41:35.428Z,3.50
2023-05-02T03:45:37.029Z,3.70
2023-05-02T03:49:38.423Z,3.78
2023-05-02T03:53:40.179Z,3.10
2023-05-02T03:57:42.043Z,3.55
2023-05-02T04:01:43.519Z,3.47
2023-05-02T04:05:45.527Z,3.53
2023-05-02T04:09:47.021Z,2.78
2023-05-02T04:13:48.468Z,2.97
2023-05-02T04:17:49.908Z,3.00
2023-05-02T04:21:51.465Z,3.50
2023-05-02T04:25:53.982Z,3.30
2023-05-02T04:29:55.871Z,2.33
2023-05-02T04:33:57.280Z,2.60
2023-05-02T04:37:58.701Z,2.90
2023-05-02T04:42:00.529Z,2.80
2023-05-02T04:46:02.144Z,2.22
2023-05-02T04:50:03.788Z,2.65
2023-05-02T04:54:05.217Z,2.80
2023-05-02T04:58:06.701Z,2.28
2023-05-02T05:02:08.592Z,3.00
2023-05-02T05:06:10.304Z,2.10
2023-05-02T05:10:11.985Z,2.40
2023-05-02T05:14:13.476Z,2.70
2023-05-02T05:18:14.989Z,2.80
2023-05-02T05:22:16.938Z,2.60
2023-05-02T05:26:18.893Z,2.58
2023-05-02T05:30:20.558Z,2.42
2023-05-02T05:34:22.266Z,3.30
2023-05-02T05:38:23.824Z,3.13
2023-05-02T05:42:25.937Z,3.30
2023-05-02T05:46:27.398Z,2.70
2023-05-02T05:50:28.867Z,3.70
2023-05-02T05:54:30.390Z,3.33
2023-05-02T05:58:31.908Z,2.00
2023-05-02T06:02:33.775Z,3.83
2023-05-02T06:06:35.616Z,3.60
2023-05-02T06:10:37.128Z,4.65
2023-05-02T06:14:38.672Z,4.57
2023-05-02T06:18:40.104Z,4.05
2023-05-02T06:22:41.586Z,4.72
2023-05-02T06:26:43.023Z,4.68
2023-05-02T06:30:44.575Z,5.03
2023-05-02T06:34:46.622Z,4.57
2023-05-02T06:38:48.444Z,5.60
2023-05-02T06:42:49.904Z,6.22
2023-05-02T06:46:51.407Z,6.20
2023-05-02T06:50:53.936Z,6.63
2023-05-02T06:54:55.814Z,6.43
2023-05-02T06:58:57.277Z,6.40
2023-05-02T07:02:58.825Z,6.53
2023-05-02T07:07:00.489Z,6.32
2023-05-02T07:11:02.762Z,6.55
2023-05-02T07:15:05.976Z,6.15
2023-05-02T07:19:07.613Z,6.30
2023-05-02T07:23:09.338Z,6.43
2023-05-02T07:27:12.829Z,5.97
2023-05-02T07:31:14.276Z,4.80
2023-05-02T07:35:15.860Z,6.20
2023-05-02T07:39:17.491Z,6.50
2023-05-02T07:43:18.994Z,6.30
2023-05-02T07:47:20.446Z,5.97
2023-05-02T07:51:22.188Z,5.32
2023-05-02T07:55:27.241Z,5.57
2023-05-02T07:59:30.267Z,4.50
2023-05-02T08:03:31.788Z,5.50
2023-05-02T08:07:35.289Z,4.65
2023-05-02T08:11:37.009Z,5.40
2023-05-02T08:15:38.472Z,4.55
2023-05-02T08:19:40.126Z,6.70
2023-05-02T08:23:42.320Z,5.90
2023-05-02T08:27:43.754Z,3.90
2023-05-02T08:31:45.401Z,4.68
2023-05-02T08:35:48.438Z,3.83
2023-05-02T08:39:49.881Z,4.03
2023-05-02T08:43:51.381Z,4.38
2023-05-02T08:47:54.032Z,4.00
2023-05-02T08:51:56.730Z,4.65
2023-05-02T08:55:59.852Z,4.30
2023-05-02T09:00:01.821Z,3.50
2023-05-02T09:04:03.592Z,2.90
2023-05-02T09:08:05.218Z,3.15
2023-05-02T09:12:07.112Z,3.17
2023-05-02T09:16:10.950Z,3.25
2023-05-02T09:20:14.198Z,3.40
2023-05-02T09:24:18.296Z,2.63
2023-05-02T09:28:19.909Z,2.53
2023-05-02T09:32:48.093Z,2.80
2023-05-02T09:36:53.780Z,2.35
2023-05-02T09:40:56.458Z,3.17
2023-05-02T09:44:58.260Z,2.97
2023-05-02T09:48:59.769Z,2.95
2023-05-02T09:53:03.182Z,2.78
2023-05-02T09:57:07.030Z,3.05
2023-05-02T10:01:14.719Z,2.72
2023-05-02T10:05:17.450Z,3.28
2023-05-02T10:09:21.782Z,3.72
2023-05-02T10:13:27.056Z,4.75
2023-05-02T10:17:32.145Z,4.32
2023-05-02T10:21:34.517Z,4.05
2023-05-02T10:25:36.402Z,3.10
2023-05-02T10:29:39.310Z,2.83
2023-05-02T10:33:41.194Z,2.75
2023-05-02T10:37:46.085Z,2.70
2023-05-02T10:41:47.727Z,2.30
2023-05-02T10:45:49.639Z,7.38
2023-05-02T10:49:56.648Z,1.85
2023-05-02T10:54:17.062Z,2.25
2023-05-02T10:58:22.375Z,1.95
2023-05-02T11:02:25.356Z,2.05
2023-05-02T11:06:28.353Z,2.30
2023-05-02T11:10:29.824Z,2.50
2023-05-02T11:14:34.176Z,2.72
2023-05-02T11:19:01.204Z,3.15
2023-05-02T11:23:21.446Z,4.55
2023-05-02T11:27:28.940Z,4.80
2023-05-02T11:31:30.710Z,4.20
2023-05-02T11:35:35.914Z,3.55
2023-05-02T11:39:37.401Z,4.43
2023-05-02T11:43:38.870Z,4.38
2023-05-02T11:47:41.546Z,3.83
2023-05-02T11:51:43.109Z,3.53
2023-05-02T11:55:53.004Z,3.75
2023-05-02T11:59:56.069Z,2.53
2023-05-02T12:04:08.416Z,3.13
2023-05-02T12:08:19.202Z,3.42
2023-05-02T12:12:21.935Z,2.90
2023-05-02T12:16:23.673Z,3.22
2023-05-02T12:20:25.791Z,2.25
2023-05-02T12:24:27.380Z,14.98
2023-05-02T12:28:28.860Z,2.78
2023-05-02T12:32:33.071Z,2.72
2023-05-02T12:36:35.169Z,3.13
2023-05-02T12:40:37.124Z,2.88
2023-05-02T12:44:43.618Z,2.90
2023-05-02T12:48:46.699Z,3.03
2023-05-02T12:52:50.941Z,2.60
2023-05-02T12:56:52.613Z,3.22
2023-05-02T13:00:54.229Z,2.60
2023-05-02T13:04:55.683Z,2.75
2023-05-02T13:08:57.133Z,2.42
2023-05-02T13:12:58.669Z,2.90
2023-05-02T13:17:00.385Z,2.53
2023-05-02T13:21:01.898Z,2.85
2023-05-02T13:25:06.997Z,2.00
2023-05-02T13:29:11.536Z,2.83
2023-05-02T13:33:12.964Z,3.13
2023-05-02T13:37:14.386Z,2.92
2023-05-02T13:41:16.471Z,3.22
2023-05-02T13:45:17.998Z,3.15
2023-05-02T13:49:19.624Z,2.75
2023-05-02T13:53:21.031Z,2.08
2023-05-02T13:57:22.439Z,2.95
2023-05-02T14:01:26.522Z,2.90
2023-05-02T14:05:27.961Z,3.33
2023-05-02T14:09:29.423Z,2.67
2023-05-02T14:13:30.879Z,2.90
2023-05-02T14:17:32.426Z,2.90
2023-05-02T14:21:33.943Z,2.75
2023-05-02T14:25:38.373Z,3.15
2023-05-02T14:29:40.271Z,3.33
2023-05-02T14:33:41.765Z,2.95
2023-05-02T14:37:45.007Z,3.33
2023-05-02T14:41:46.489Z,3.47
2023-05-02T14:45:48.031Z,3.00
2023-05-02T14:49:49.551Z,3.00
2023-05-02T14:53:51.240Z,2.83
2023-05-02T14:57:52.603Z,3.13
2023-05-02T15:01:54.057Z,2.83
2023-05-02T15:05:57.357Z,2.92
2023-05-02T15:09:58.915Z,3.35
2023-05-02T15:14:00.939Z,3.42
2023-05-02T15:18:02.652Z,7.50
2023-05-02T15:22:04.186Z,3.20
2023-05-02T15:26:05.724Z,3.10
2023-05-02T15:30:08.152Z,3.50
2023-05-02T15:34:09.679Z,2.85
2023-05-02T15:38:11.229Z,2.30
2023-05-02T15:42:12.946Z,3.70
2023-05-02T15:46:14.505Z,2.28
2023-05-02T15:50:16.371Z,2.28
2023-05-02T15:54:17.761Z,2.45
2023-05-02T15:58:19.675Z,2.40
2023-05-02T16:02:22.038Z,2.58
2023-05-02T16:06:23.604Z,2.65
2023-05-02T16:10:25.203Z,2.30
2023-05-02T16:14:27.966Z,2.35
2023-05-02T16:18:29.504Z,2.45
2023-05-02T16:22:31.066Z,2.72
2023-05-02T16:26:35.702Z,2.20
2023-05-02T16:30:37.573Z,2.92
2023-05-02T16:34:39.217Z,2.35
2023-05-02T16:38:40.697Z,2.88
2023-05-02T16:42:42.154Z,2.50
2023-05-02T16:46:43.925Z,2.90
2023-05-02T16:50:45.431Z,1.85
2023-05-02T16:54:47.000Z,2.40
2023-05-02T16:58:48.480Z,2.60
2023-05-02T17:02:51.979Z,2.60
2023-05-02T17:06:55.544Z,2.60
2023-05-02T17:10:57.438Z,2.22
2023-05-02T17:15:00.604Z,2.40
2023-05-02T17:19:03.037Z,2.70
2023-05-02T17:23:05.415Z,2.55
2023-05-02T17:27:07.129Z,2.40
2023-05-02T17:31:08.733Z,2.45
2023-05-02T17:35:10.397Z,2.55
2023-05-02T17:39:13.393Z,2.38
2023-05-02T17:43:14.842Z,2.85
2023-05-02T17:47:18.058Z,1.95
2023-05-02T17:51:19.802Z,2.75
2023-05-02T17:55:21.239Z,2.65
2023-05-02T17:59:22.942Z,2.95
2023-05-02T18:03:24.982Z,2.50
2023-05-02T18:07:28.982Z,2.50
2023-05-02T18:11:32.004Z,2.53
2023-05-02T18:15:33.490Z,2.78
2023-05-02T18:19:34.997Z,3.05
2023-05-02T18:23:36.469Z,3.17
2023-05-02T18:27:38.021Z,2.97
2023-05-02T18:31:40.282Z,2.65
2023-05-02T18:35:49.035Z,2.63
2023-05-02T18:39:51.956Z,2.53
2023-05-02T18:43:54.535Z,2.55
2023-05-02T18:47:56.140Z,2.35
2023-05-02T18:51:57.619Z,2.15
2023-05-02T18:55:59.100Z,2.20
2023-05-02T19:00:00.753Z,2.65
2023-05-02T19:04:02.924Z,2.33
2023-05-02T19:08:05.344Z,2.38
2023-05-02T19:12:06.959Z,2.63
2023-05-02T19:16:12.815Z,2.25
2023-05-02T19:20:14.285Z,2.38
2023-05-02T19:24:16.717Z,2.35
2023-05-02T19:28:18.345Z,2.35
2023-05-02T19:32:21.909Z,3.70
2023-05-02T19:36:24.137Z,2.67
2023-05-02T19:40:26.149Z,2.38
2023-05-02T19:44:27.569Z,2.60
2023-05-02T19:48:28.992Z,2.40
2023-05-02T19:52:30.535Z,2.65
2023-05-02T19:56:32.027Z,1.90
2023-05-02T20:00:34.081Z,2.00
2023-05-02T20:04:35.666Z,2.20
2023-05-02T20:08:37.212Z,1.85
2023-05-02T20:12:38.699Z,2.33
2023-05-02T20:16:40.225Z,2.00
2023-05-02T20:20:41.722Z,2.33
2023-05-02T20:24:44.146Z,2.13
2023-05-02T20:28:45.606Z,2.05
2023-05-02T20:32:47.097Z,2.22
2023-05-02T20:36:48.602Z,1.77
2023-05-02T20:40:50.696Z,2.00
2023-05-02T20:44:59.108Z,2.08
2023-05-02T20:49:00.555Z,2.22
2023-05-02T20:53:02.323Z,1.95
2023-05-02T20:57:04.034Z,1.80
2023-05-02T21:01:05.710Z,2.08
2023-05-02T21:05:07.482Z,2.13
2023-05-02T21:09:09.479Z,2.20
2023-05-02T21:13:10.916Z,1.95
2023-05-02T21:17:12.444Z,2.03
2023-05-02T21:21:14.199Z,1.90
2023-05-02T21:25:15.824Z,1.70
2023-05-02T21:29:18.519Z,2.00
2023-05-02T21:33:20.123Z,2.05
2023-05-02T21:37:22.280Z,2.45
2023-05-02T21:41:23.701Z,1.90
2023-05-02T21:45:25.179Z,1.90
2023-05-02T21:49:29.376Z,1.67
2023-05-02T21:53:30.827Z,1.85
2023-05-02T21:57:32.292Z,2.60
2023-05-02T22:01:33.805Z,2.00
2023-05-02T22:05:36.167Z,2.60
2023-05-02T22:09:37.582Z,2.08
2023-05-02T22:13:39.133Z,1.77
2023-05-02T22:17:43.195Z,2.15
2023-05-02T22:21:44.631Z,2.20
2023-05-02T22:25:46.354Z,2.28
2023-05-02T22:29:47.839Z,2.20
2023-05-02T22:33:50.143Z,2.17
2023-05-02T22:37:51.562Z,1.77
2023-05-02T22:41:53.650Z,2.03
2023-05-02T22:45:55.501Z,1.90
2023-05-02T22:49:59.502Z,2.35
2023-05-02T22:54:03.102Z,1.90
2023-05-02T22:58:04.662Z,1.90
2023-05-02T23:02:06.126Z,2.00
2023-05-02T23:06:07.998Z,1.60
2023-05-02T23:10:09.721Z,2.13
2023-05-02T23:14:11.131Z,1.42
2023-05-02T23:18:12.888Z,1.90
2023-05-02T23:22:14.532Z,1.85
2023-05-02T23:26:15.913Z,2.13
2023-05-02T23:30:17.366Z,1.85
2023-05-02T23:34:23.019Z,2.33
2023-05-02T23:38:25.370Z,1.60
2023-05-02T23:42:28.810Z,2.10
2023-05-02T23:46:30.404Z,1.80
2023-05-02T23:50:32.837Z,2.10
2023-05-02T23:54:35.479Z,1.83
2023-05-02T23:58:36.916Z,1.95
